Terminal Aerodrome Forecast
Issued by NWS

Home | Current Version | Previous Version | Text Only | Print | Product List | Glossary On
Versions: 1 2 3 4 5 6 7 8 9 10 11 12 13 14 15 16 17 18 19 20 21 22 23
000
FTUS43 KGRB 231100
TAFAUW
TAF
KAUW 231123Z 2312/2412 16005KT P6SM VCSH SCT025 OVC035
     FM231300 18005KT 6SM -SHRA BR BKN018 OVC030
     FM231900 20005KT P6SM SCT007 OVC010
     FM240300 24003KT 3SM BR SCT003
     FM240500 VRB03KT 3/4SM BR BKN003=

USA.gov is the U.S. government's official web portal to all federal, state and local government web resources and services.